sensor_id;sensor_type;location;lat;lon;timestamp;temperature;humidity
76104;HTU21D;64831;44.870;37.336;2023-03-31T00:00:19;4.26;72.76
76104;HTU21D;64831;44.870;37.336;2023-03-31T00:02:45;4.29;73.23
76104;HTU21D;64831;44.870;37.336;2023-03-31T00:05:11;4.34;73.48
76104;HTU21D;64831;44.870;37.336;2023-03-31T00:07:42;4.37;74.21
76104;HTU21D;64831;44.870;37.336;2023-03-31T00:10:10;4.42;74.19
76104;HTU21D;64831;44.870;37.336;2023-03-31T00:12:35;4.46;73.23
76104;HTU21D;64831;44.870;37.336;2023-03-31T00:15:01;4.51;74.26
76104;HTU21D;64831;44.870;37.336;2023-03-31T00:17:27;4.57;74.64
76104;HTU21D;64831;44.870;37.336;2023-03-31T00:19:53;4.63;74.14
76104;HTU21D;64831;44.870;37.336;2023-03-31T00:22:24;4.72;74.25
76104;HTU21D;64831;44.870;37.336;2023-03-31T00:24:52;4.78;74.24
76104;HTU21D;64831;44.870;37.336;2023-03-31T00:27:17;4.78;73.98
76104;HTU21D;64831;44.870;37.336;2023-03-31T00:29:43;4.73;74.15
76104;HTU21D;64831;44.870;37.336;2023-03-31T00:32:10;4.66;74.11
76104;HTU21D;64831;44.870;37.336;2023-03-31T00:34:36;4.56;74.82
76104;HTU21D;64831;44.870;37.336;2023-03-31T00:37:02;4.49;74.84
76104;HTU21D;64831;44.870;37.336;2023-03-31T00:39:28;4.42;74.51
76104;HTU21D;64831;44.870;37.336;2023-03-31T00:42:00;4.29;74.85
76104;HTU21D;64831;44.870;37.336;2023-03-31T00:44:27;4.29;74.17
76104;HTU21D;64831;44.870;37.336;2023-03-31T00:52:03;4.39;74.25
76104;HTU21D;64831;44.870;37.336;2023-03-31T00:54:31;4.45;74.02
76104;HTU21D;64831;44.870;37.336;2023-03-31T00:56:58;4.49;74.84
76104;HTU21D;64831;44.870;37.336;2023-03-31T00:59:28;4.49;75.04
76104;HTU21D;64831;44.870;37.336;2023-03-31T01:01:55;4.50;74.82
76104;HTU21D;64831;44.870;37.336;2023-03-31T01:04:23;4.50;74.82
76104;HTU21D;64831;44.870;37.336;2023-03-31T01:06:55;4.52;75.60
76104;HTU21D;64831;44.870;37.336;2023-03-31T01:09:26;4.54;74.67
76104;HTU21D;64831;44.870;37.336;2023-03-31T01:11:55;4.56;73.95
76104;HTU21D;64831;44.870;37.336;2023-03-31T01:14:21;4.57;73.73
76104;HTU21D;64831;44.870;37.336;2023-03-31T01:16:46;4.59;73.55
76104;HTU21D;64831;44.870;37.336;2023-03-31T01:19:25;4.65;73.57
76104;HTU21D;64831;44.870;37.336;2023-03-31T01:27:33;4.78;73.32
76104;HTU21D;64831;44.870;37.336;2023-03-31T01:40:23;4.91;69.90
76104;HTU21D;64831;44.870;37.336;2023-03-31T01:42:56;4.92;69.23
76104;HTU21D;64831;44.870;37.336;2023-03-31T01:45:36;4.96;69.15
76104;HTU21D;64831;44.870;37.336;2023-03-31T01:48:13;4.97;68.55
76104;HTU21D;64831;44.870;37.336;2023-03-31T01:51:06;5.00;67.83
76104;HTU21D;64831;44.870;37.336;2023-03-31T01:53:41;5.00;67.62
76104;HTU21D;64831;44.870;37.336;2023-03-31T01:56:12;5.02;67.25
76104;HTU21D;64831;44.870;37.336;2023-03-31T01:58:49;5.04;66.62
76104;HTU21D;64831;44.870;37.336;2023-03-31T02:01:20;5.07;67.01
76104;HTU21D;64831;44.870;37.336;2023-03-31T02:03:52;5.08;66.62
76104;HTU21D;64831;44.870;37.336;2023-03-31T02:06:24;5.09;64.89
76104;HTU21D;64831;44.870;37.336;2023-03-31T02:08:56;5.13;64.43
76104;HTU21D;64831;44.870;37.336;2023-03-31T02:11:23;5.17;63.98
76104;HTU21D;64831;44.870;37.336;2023-03-31T02:13:50;5.20;64.51
76104;HTU21D;64831;44.870;37.336;2023-03-31T02:16:18;5.22;64.22
76104;HTU21D;64831;44.870;37.336;2023-03-31T02:18:46;5.25;63.95
76104;HTU21D;64831;44.870;37.336;2023-03-31T02:21:14;5.27;63.77
76104;HTU21D;64831;44.870;37.336;2023-03-31T02:23:42;5.31;63.66
76104;HTU21D;64831;44.870;37.336;2023-03-31T02:26:10;5.34;63.86
76104;HTU21D;64831;44.870;37.336;2023-03-31T02:28:37;5.36;64.21
76104;HTU21D;64831;44.870;37.336;2023-03-31T02:31:06;5.38;64.46
76104;HTU21D;64831;44.870;37.336;2023-03-31T02:33:32;5.42;64.46
76104;HTU21D;64831;44.870;37.336;2023-03-31T02:35:58;5.43;64.42
76104;HTU21D;64831;44.870;37.336;2023-03-31T02:38:24;5.49;64.63
76104;HTU21D;64831;44.870;37.336;2023-03-31T02:40:50;5.51;64.79
76104;HTU21D;64831;44.870;37.336;2023-03-31T02:43:15;5.53;64.98
76104;HTU21D;64831;44.870;37.336;2023-03-31T02:45:42;5.56;65.01
76104;HTU21D;64831;44.870;37.336;2023-03-31T02:48:09;5.60;64.72
76104;HTU21D;64831;44.870;37.336;2023-03-31T02:51:23;5.62;64.95
76104;HTU21D;64831;44.870;37.336;2023-03-31T02:53:38;5.69;65.91
76104;HTU21D;64831;44.870;37.336;2023-03-31T03:01:30;5.79;66.43
76104;HTU21D;64831;44.870;37.336;2023-03-31T03:09:21;5.85;64.89
76104;HTU21D;64831;44.870;37.336;2023-03-31T03:17:05;5.92;63.37
76104;HTU21D;64831;44.870;37.336;2023-03-31T03:19:31;5.95;63.90
76104;HTU21D;64831;44.870;37.336;2023-03-31T03:21:57;5.96;63.60
76104;HTU21D;64831;44.870;37.336;2023-03-31T03:24:23;5.99;63.56
76104;HTU21D;64831;44.870;37.336;2023-03-31T03:26:53;6.01;63.64
76104;HTU21D;64831;44.870;37.336;2023-03-31T03:29:19;6.02;63.95
76104;HTU21D;64831;44.870;37.336;2023-03-31T03:31:45;6.05;63.27
76104;HTU21D;64831;44.870;37.336;2023-03-31T03:34:11;6.06;62.57
76104;HTU21D;64831;44.870;37.336;2023-03-31T03:36:37;6.10;62.86
76104;HTU21D;64831;44.870;37.336;2023-03-31T03:39:04;6.11;62.81
76104;HTU21D;64831;44.870;37.336;2023-03-31T03:41:30;6.11;62.51
76104;HTU21D;64831;44.870;37.336;2023-03-31T03:43:58;6.14;62.15
76104;HTU21D;64831;44.870;37.336;2023-03-31T03:46:23;6.16;62.37
76104;HTU21D;64831;44.870;37.336;2023-03-31T03:48:49;6.20;62.01
76104;HTU21D;64831;44.870;37.336;2023-03-31T03:51:14;6.22;61.88
76104;HTU21D;64831;44.870;37.336;2023-03-31T03:53:40;6.22;61.07
76104;HTU21D;64831;44.870;37.336;2023-03-31T03:56:06;6.25;61.66
76104;HTU21D;64831;44.870;37.336;2023-03-31T03:58:32;6.28;61.75
76104;HTU21D;64831;44.870;37.336;2023-03-31T04:00:57;6.29;61.21
76104;HTU21D;64831;44.870;37.336;2023-03-31T04:03:23;6.31;60.44
76104;HTU21D;64831;44.870;37.336;2023-03-31T04:05:48;6.34;60.17
76104;HTU21D;64831;44.870;37.336;2023-03-31T04:08:15;6.37;59.74
76104;HTU21D;64831;44.870;37.336;2023-03-31T04:10:47;6.39;59.63
76104;HTU21D;64831;44.870;37.336;2023-03-31T04:13:14;6.44;60.22
76104;HTU21D;64831;44.870;37.336;2023-03-31T04:15:40;6.45;60.06
76104;HTU21D;64831;44.870;37.336;2023-03-31T04:18:06;6.51;59.95
76104;HTU21D;64831;44.870;37.336;2023-03-31T04:20:35;6.54;59.90
76104;HTU21D;64831;44.870;37.336;2023-03-31T04:23:02;6.58;60.22
76104;HTU21D;64831;44.870;37.336;2023-03-31T04:25:30;6.65;60.49
76104;HTU21D;64831;44.870;37.336;2023-03-31T04:27:56;6.72;60.76
76104;HTU21D;64831;44.870;37.336;2023-03-31T04:30:23;6.78;60.81
76104;HTU21D;64831;44.870;37.336;2023-03-31T04:35:15;6.93;61.01
76104;HTU21D;64831;44.870;37.336;2023-03-31T04:37:42;6.96;61.25
76104;HTU21D;64831;44.870;37.336;2023-03-31T04:40:08;7.00;61.11
76104;HTU21D;64831;44.870;37.336;2023-03-31T04:42:34;7.04;61.38
76104;HTU21D;64831;44.870;37.336;2023-03-31T04:45:01;7.10;61.25
76104;HTU21D;64831;44.870;37.336;2023-03-31T04:47:27;7.14;60.99
76104;HTU21D;64831;44.870;37.336;2023-03-31T04:49:52;7.16;60.86
76104;HTU21D;64831;44.870;37.336;2023-03-31T04:52:18;7.18;60.83
76104;HTU21D;64831;44.870;37.336;2023-03-31T04:54:44;7.22;60.69
76104;HTU21D;64831;44.870;37.336;2023-03-31T04:57:10;7.22;60.17
76104;HTU21D;64831;44.870;37.336;2023-03-31T04:59:35;7.20;59.65
76104;HTU21D;64831;44.870;37.336;2023-03-31T05:02:02;7.19;60.02
76104;HTU21D;64831;44.870;37.336;2023-03-31T05:04:33;7.19;60.37
76104;HTU21D;64831;44.870;37.336;2023-03-31T05:07:00;7.29;61.09
76104;HTU21D;64831;44.870;37.336;2023-03-31T05:09:26;7.34;61.07
76104;HTU21D;64831;44.870;37.336;2023-03-31T05:11:52;7.37;59.99
76104;HTU21D;64831;44.870;37.336;2023-03-31T05:14:17;7.44;60.78
76104;HTU21D;64831;44.870;37.336;2023-03-31T05:16:43;7.50;61.21
76104;HTU21D;64831;44.870;37.336;2023-03-31T05:19:09;7.58;61.03
76104;HTU21D;64831;44.870;37.336;2023-03-31T05:21:36;7.64;60.22
76104;HTU21D;64831;44.870;37.336;2023-03-31T05:24:02;7.70;60.42
76104;HTU21D;64831;44.870;37.336;2023-03-31T05:26:29;7.70;58.42
76104;HTU21D;64831;44.870;37.336;2023-03-31T05:28:55;7.65;58.32
76104;HTU21D;64831;44.870;37.336;2023-03-31T05:31:20;7.70;58.74
76104;HTU21D;64831;44.870;37.336;2023-03-31T05:33:46;7.86;57.83
76104;HTU21D;64831;44.870;37.336;2023-03-31T05:36:16;8.09;58.19
76104;HTU21D;64831;44.870;37.336;2023-03-31T05:38:43;8.31;58.48
76104;HTU21D;64831;44.870;37.336;2023-03-31T05:41:10;8.44;56.68
76104;HTU21D;64831;44.870;37.336;2023-03-31T05:43:36;8.58;56.06
76104;HTU21D;64831;44.870;37.336;2023-03-31T05:46:02;8.86;54.92
76104;HTU21D;64831;44.870;37.336;2023-03-31T05:48:28;9.15;55.57
76104;HTU21D;64831;44.870;37.336;2023-03-31T05:50:57;9.38;54.62
76104;HTU21D;64831;44.870;37.336;2023-03-31T05:53:24;9.59;52.78
76104;HTU21D;64831;44.870;37.336;2023-03-31T05:55:54;9.64;51.63
76104;HTU21D;64831;44.870;37.336;2023-03-31T05:58:20;9.76;52.25
76104;HTU21D;64831;44.870;37.336;2023-03-31T06:00:46;10.27;52.62
76104;HTU21D;64831;44.870;37.336;2023-03-31T06:03:12;11.27;51.91
76104;HTU21D;64831;44.870;37.336;2023-03-31T06:05:37;11.86;48.84
76104;HTU21D;64831;44.870;37.336;2023-03-31T06:08:03;12.45;49.04
76104;HTU21D;64831;44.870;37.336;2023-03-31T06:10:29;13.07;46.48
76104;HTU21D;64831;44.870;37.336;2023-03-31T06:12:55;13.22;44.34
76104;HTU21D;64831;44.870;37.336;2023-03-31T06:15:21;13.37;44.09
76104;HTU21D;64831;44.870;37.336;2023-03-31T06:17:46;13.88;44.68
76104;HTU21D;64831;44.870;37.336;2023-03-31T06:20:12;14.43;42.39
76104;HTU21D;64831;44.870;37.336;2023-03-31T06:22:38;14.72;41.13
76104;HTU21D;64831;44.870;37.336;2023-03-31T06:25:04;15.37;41.97
76104;HTU21D;64831;44.870;37.336;2023-03-31T06:27:30;15.63;38.24
76104;HTU21D;64831;44.870;37.336;2023-03-31T06:29:55;15.61;37.82
76104;HTU21D;64831;44.870;37.336;2023-03-31T06:32:21;15.53;37.98
76104;HTU21D;64831;44.870;37.336;2023-03-31T06:34:47;15.92;38.59
76104;HTU21D;64831;44.870;37.336;2023-03-31T06:37:13;16.24;38.42
76104;HTU21D;64831;44.870;37.336;2023-03-31T06:39:39;16.37;38.76
76104;HTU21D;64831;44.870;37.336;2023-03-31T06:42:05;16.51;37.97
76104;HTU21D;64831;44.870;37.336;2023-03-31T06:44:37;16.51;36.90
76104;HTU21D;64831;44.870;37.336;2023-03-31T06:47:03;16.61;36.20
76104;HTU21D;64831;44.870;37.336;2023-03-31T06:49:30;16.39;34.89
76104;HTU21D;64831;44.870;37.336;2023-03-31T06:51:55;16.46;35.56
76104;HTU21D;64831;44.870;37.336;2023-03-31T06:54:24;16.50;35.53
76104;HTU21D;64831;44.870;37.336;2023-03-31T06:56:50;16.66;36.07
76104;HTU21D;64831;44.870;37.336;2023-03-31T06:59:16;17.02;36.60
76104;HTU21D;64831;44.870;37.336;2023-03-31T07:01:41;16.96;34.16
76104;HTU21D;64831;44.870;37.336;2023-03-31T07:04:07;17.11;34.66
76104;HTU21D;64831;44.870;37.336;2023-03-31T07:06:33;17.34;34.22
76104;HTU21D;64831;44.870;37.336;2023-03-31T07:08:59;17.16;33.95
76104;HTU21D;64831;44.870;37.336;2023-03-31T07:11:25;17.32;34.31
76104;HTU21D;64831;44.870;37.336;2023-03-31T07:13:53;17.11;33.72
76104;HTU21D;64831;44.870;37.336;2023-03-31T07:16:20;16.84;33.17
76104;HTU21D;64831;44.870;37.336;2023-03-31T07:18:45;16.82;34.06
76104;HTU21D;64831;44.870;37.336;2023-03-31T07:21:11;16.67;34.11
76104;HTU21D;64831;44.870;37.336;2023-03-31T07:23:37;16.98;35.07
76104;HTU21D;64831;44.870;37.336;2023-03-31T07:26:03;17.34;36.21
76104;HTU21D;64831;44.870;37.336;2023-03-31T07:28:29;17.40;34.18
76104;HTU21D;64831;44.870;37.336;2023-03-31T07:30:55;17.61;34.28
76104;HTU21D;64831;44.870;37.336;2023-03-31T07:33:21;17.79;34.50
76104;HTU21D;64831;44.870;37.336;2023-03-31T07:35:46;18.21;35.66
76104;HTU21D;64831;44.870;37.336;2023-03-31T07:38:12;18.13;33.19
76104;HTU21D;64831;44.870;37.336;2023-03-31T07:40:38;17.95;32.54
76104;HTU21D;64831;44.870;37.336;2023-03-31T07:43:04;17.84;33.15
76104;HTU21D;64831;44.870;37.336;2023-03-31T07:45:31;17.99;33.83
76104;HTU21D;64831;44.870;37.336;2023-03-31T07:47:57;17.76;33.78
76104;HTU21D;64831;44.870;37.336;2023-03-31T07:50:23;17.87;34.21
76104;HTU21D;64831;44.870;37.336;2023-03-31T07:52:51;17.14;34.31
76104;HTU21D;64831;44.870;37.336;2023-03-31T07:55:17;17.34;33.87
76104;HTU21D;64831;44.870;37.336;2023-03-31T07:57:44;17.31;33.61
76104;HTU21D;64831;44.870;37.336;2023-03-31T08:00:11;17.60;33.83
76104;HTU21D;64831;44.870;37.336;2023-03-31T08:02:37;18.13;34.98
76104;HTU21D;64831;44.870;37.336;2023-03-31T08:05:04;18.22;33.44
76104;HTU21D;64831;44.870;37.336;2023-03-31T08:07:34;18.18;32.39
76104;HTU21D;64831;44.870;37.336;2023-03-31T08:10:00;18.53;33.88
76104;HTU21D;64831;44.870;37.336;2023-03-31T08:12:25;18.85;33.81
76104;HTU21D;64831;44.870;37.336;2023-03-31T08:14:51;19.22;33.29
76104;HTU21D;64831;44.870;37.336;2023-03-31T08:17:17;19.38;32.97
76104;HTU21D;64831;44.870;37.336;2023-03-31T08:19:42;18.95;31.41
76104;HTU21D;64831;44.870;37.336;2023-03-31T08:22:08;18.65;32.28
76104;HTU21D;64831;44.870;37.336;2023-03-31T08:24:34;18.91;33.20
76104;HTU21D;64831;44.870;37.336;2023-03-31T08:26:59;18.76;31.87
76104;HTU21D;64831;44.870;37.336;2023-03-31T08:29:25;19.13;32.95
76104;HTU21D;64831;44.870;37.336;2023-03-31T08:31:52;19.44;32.97
76104;HTU21D;64831;44.870;37.336;2023-03-31T08:34:18;19.02;32.32
76104;HTU21D;64831;44.870;37.336;2023-03-31T08:36:43;19.13;30.86
76104;HTU21D;64831;44.870;37.336;2023-03-31T08:39:09;18.84;31.51
76104;HTU21D;64831;44.870;37.336;2023-03-31T08:44:23;19.31;32.83
76104;HTU21D;64831;44.870;37.336;2023-03-31T08:47:04;19.40;31.68
76104;HTU21D;64831;44.870;37.336;2023-03-31T08:49:35;19.46;32.02
76104;HTU21D;64831;44.870;37.336;2023-03-31T08:52:03;19.69;32.67
76104;HTU21D;64831;44.870;37.336;2023-03-31T08:56:55;18.64;31.89
76104;HTU21D;64831;44.870;37.336;2023-03-31T08:59:32;18.65;31.97
76104;HTU21D;64831;44.870;37.336;2023-03-31T09:02:00;18.59;32.57
76104;HTU21D;64831;44.870;37.336;2023-03-31T09:09:44;18.15;31.16
76104;HTU21D;64831;44.870;37.336;2023-03-31T09:12:15;18.44;31.32
76104;HTU21D;64831;44.870;37.336;2023-03-31T09:17:22;17.38;33.28
76104;HTU21D;64831;44.870;37.336;2023-03-31T09:22:23;15.61;35.39
76104;HTU21D;64831;44.870;37.336;2023-03-31T09:27:25;14.97;38.11
76104;HTU21D;64831;44.870;37.336;2023-03-31T09:29:56;14.97;38.60
76104;HTU21D;64831;44.870;37.336;2023-03-31T09:32:30;15.42;38.38
76104;HTU21D;64831;44.870;37.336;2023-03-31T09:35:00;15.21;38.52
76104;HTU21D;64831;44.870;37.336;2023-03-31T09:37:27;15.06;39.14
76104;HTU21D;64831;44.870;37.336;2023-03-31T09:39:55;15.37;38.72
76104;HTU21D;64831;44.870;37.336;2023-03-31T09:42:21;15.48;38.07
76104;HTU21D;64831;44.870;37.336;2023-03-31T09:44:47;15.17;38.27
76104;HTU21D;64831;44.870;37.336;2023-03-31T09:47:18;14.83;39.11
76104;HTU21D;64831;44.870;37.336;2023-03-31T09:49:45;14.80;39.15
76104;HTU21D;64831;44.870;37.336;2023-03-31T09:52:13;15.12;39.10
76104;HTU21D;64831;44.870;37.336;2023-03-31T09:54:42;15.02;39.81
76104;HTU21D;64831;44.870;37.336;2023-03-31T09:57:12;15.19;38.98
76104;HTU21D;64831;44.870;37.336;2023-03-31T09:59:38;15.01;38.59
76104;HTU21D;64831;44.870;37.336;2023-03-31T10:04:58;14.92;37.53
76104;HTU21D;64831;44.870;37.336;2023-03-31T10:07:23;15.09;37.42
76104;HTU21D;64831;44.870;37.336;2023-03-31T10:09:50;14.98;37.75
76104;HTU21D;64831;44.870;37.336;2023-03-31T10:12:21;14.97;37.49
76104;HTU21D;64831;44.870;37.336;2023-03-31T10:14:49;14.82;37.16
76104;HTU21D;64831;44.870;37.336;2023-03-31T10:17:17;14.77;37.45
76104;HTU21D;64831;44.870;37.336;2023-03-31T10:19:50;14.75;37.49
76104;HTU21D;64831;44.870;37.336;2023-03-31T10:24:45;14.81;37.63
76104;HTU21D;64831;44.870;37.336;2023-03-31T10:27:17;15.01;38.08
76104;HTU21D;64831;44.870;37.336;2023-03-31T10:29:44;15.30;38.08
76104;HTU21D;64831;44.870;37.336;2023-03-31T10:34:40;15.14;37.81
76104;HTU21D;64831;44.870;37.336;2023-03-31T10:37:06;15.12;37.62
76104;HTU21D;64831;44.870;37.336;2023-03-31T10:39:35;14.83;37.92
76104;HTU21D;64831;44.870;37.336;2023-03-31T10:42:01;14.74;38.30
76104;HTU21D;64831;44.870;37.336;2023-03-31T10:44:31;14.52;39.86
76104;HTU21D;64831;44.870;37.336;2023-03-31T10:47:02;14.35;40.10
76104;HTU21D;64831;44.870;37.336;2023-03-31T10:49:29;14.17;40.08
76104;HTU21D;64831;44.870;37.336;2023-03-31T10:52:01;14.12;40.67
76104;HTU21D;64831;44.870;37.336;2023-03-31T10:54:27;14.35;41.13
76104;HTU21D;64831;44.870;37.336;2023-03-31T10:56:59;14.69;40.87
76104;HTU21D;64831;44.870;37.336;2023-03-31T11:12:33;14.10;40.45
76104;HTU21D;64831;44.870;37.336;2023-03-31T11:15:15;14.01;40.94
76104;HTU21D;64831;44.870;37.336;2023-03-31T11:18:00;14.17;40.63
76104;HTU21D;64831;44.870;37.336;2023-03-31T11:23:13;13.98;40.78
76104;HTU21D;64831;44.870;37.336;2023-03-31T11:26:28;14.01;41.53
76104;HTU21D;64831;44.870;37.336;2023-03-31T11:28:33;14.17;41.04
76104;HTU21D;64831;44.870;37.336;2023-03-31T11:36:06;14.07;42.72
76104;HTU21D;64831;44.870;37.336;2023-03-31T11:41:09;13.80;41.42
76104;HTU21D;64831;44.870;37.336;2023-03-31T11:43:57;14.05;41.29
76104;HTU21D;64831;44.870;37.336;2023-03-31T11:46:39;13.70;42.03
76104;HTU21D;64831;44.870;37.336;2023-03-31T11:49:10;13.81;42.22
76104;HTU21D;64831;44.870;37.336;2023-03-31T11:54:03;13.88;42.99
76104;HTU21D;64831;44.870;37.336;2023-03-31T11:56:37;13.82;43.31
76104;HTU21D;64831;44.870;37.336;2023-03-31T11:59:04;13.88;43.55
76104;HTU21D;64831;44.870;37.336;2023-03-31T12:04:10;13.70;44.77
76104;HTU21D;64831;44.870;37.336;2023-03-31T12:06:41;13.92;44.31
76104;HTU21D;64831;44.870;37.336;2023-03-31T12:09:12;13.60;44.71
76104;HTU21D;64831;44.870;37.336;2023-03-31T12:11:42;13.39;45.22
76104;HTU21D;64831;44.870;37.336;2023-03-31T12:16:42;13.26;44.35
76104;HTU21D;64831;44.870;37.336;2023-03-31T12:19:12;12.88;44.98
76104;HTU21D;64831;44.870;37.336;2023-03-31T12:21:42;12.84;45.88
76104;HTU21D;64831;44.870;37.336;2023-03-31T12:24:11;12.86;46.40
76104;HTU21D;64831;44.870;37.336;2023-03-31T12:27:13;12.90;45.29
76104;HTU21D;64831;44.870;37.336;2023-03-31T12:32:33;12.77;44.47
76104;HTU21D;64831;44.870;37.336;2023-03-31T12:35:03;12.73;44.49
76104;HTU21D;64831;44.870;37.336;2023-03-31T12:40:15;12.60;45.63
76104;HTU21D;64831;44.870;37.336;2023-03-31T12:45:28;12.38;45.34
76104;HTU21D;64831;44.870;37.336;2023-03-31T12:55:54;12.01;47.52
76104;HTU21D;64831;44.870;37.336;2023-03-31T13:06:03;11.73;46.14
76104;HTU21D;64831;44.870;37.336;2023-03-31T13:11:14;12.02;45.99
76104;HTU21D;64831;44.870;37.336;2023-03-31T13:13:44;11.97;45.86
76104;HTU21D;64831;44.870;37.336;2023-03-31T13:16:09;11.81;46.00
76104;HTU21D;64831;44.870;37.336;2023-03-31T13:18:35;11.74;46.15
76104;HTU21D;64831;44.870;37.336;2023-03-31T13:21:01;11.73;46.19
76104;HTU21D;64831;44.870;37.336;2023-03-31T13:23:29;11.72;46.19
76104;HTU21D;64831;44.870;37.336;2023-03-31T13:25:56;11.57;45.86
76104;HTU21D;64831;44.870;37.336;2023-03-31T13:28:26;11.57;45.85
76104;HTU21D;64831;44.870;37.336;2023-03-31T13:30:57;11.62;45.93
76104;HTU21D;64831;44.870;37.336;2023-03-31T13:38:40;11.54;46.93
76104;HTU21D;64831;44.870;37.336;2023-03-31T13:53:39;10.94;48.48
76104;HTU21D;64831;44.870;37.336;2023-03-31T14:06:26;10.79;49.34
76104;HTU21D;64831;44.870;37.336;2023-03-31T14:08:58;10.79;49.41
76104;HTU21D;64831;44.870;37.336;2023-03-31T14:11:26;10.70;50.24
76104;HTU21D;64831;44.870;37.336;2023-03-31T14:16:28;10.46;51.56
76104;HTU21D;64831;44.870;37.336;2023-03-31T14:18:59;10.52;51.56
76104;HTU21D;64831;44.870;37.336;2023-03-31T14:21:33;10.58;50.97
76104;HTU21D;64831;44.870;37.336;2023-03-31T14:31:58;10.09;52.88
76104;HTU21D;64831;44.870;37.336;2023-03-31T14:36:55;10.00;52.17
76104;HTU21D;64831;44.870;37.336;2023-03-31T14:39:24;9.94;52.07
76104;HTU21D;64831;44.870;37.336;2023-03-31T14:41:52;9.76;53.73
76104;HTU21D;64831;44.870;37.336;2023-03-31T14:44:18;9.67;54.10
76104;HTU21D;64831;44.870;37.336;2023-03-31T14:46:44;9.72;53.88
76104;HTU21D;64831;44.870;37.336;2023-03-31T14:52:18;9.69;53.76
76104;HTU21D;64831;44.870;37.336;2023-03-31T14:54:45;9.66;53.87
76104;HTU21D;64831;44.870;37.336;2023-03-31T14:57:18;9.68;53.94
76104;HTU21D;64831;44.870;37.336;2023-03-31T14:59:46;9.74;53.84
76104;HTU21D;64831;44.870;37.336;2023-03-31T15:02:14;9.76;53.90
76104;HTU21D;64831;44.870;37.336;2023-03-31T15:04:41;9.71;53.50
76104;HTU21D;64831;44.870;37.336;2023-03-31T15:07:09;9.64;53.56
76104;HTU21D;64831;44.870;37.336;2023-03-31T15:09:36;9.60;54.11
76104;HTU21D;64831;44.870;37.336;2023-03-31T15:12:10;9.48;54.75
76104;HTU21D;64831;44.870;37.336;2023-03-31T15:14:44;9.52;54.61
76104;HTU21D;64831;44.870;37.336;2023-03-31T15:17:18;9.48;55.10
76104;HTU21D;64831;44.870;37.336;2023-03-31T15:19:44;9.45;55.34
76104;HTU21D;64831;44.870;37.336;2023-03-31T15:22:11;9.34;56.04
76104;HTU21D;64831;44.870;37.336;2023-03-31T15:24:38;9.35;56.45
76104;HTU21D;64831;44.870;37.336;2023-03-31T15:27:08;9.35;56.54
76104;HTU21D;64831;44.870;37.336;2023-03-31T15:29:38;9.27;56.90
76104;HTU21D;64831;44.870;37.336;2023-03-31T15:32:16;9.30;56.16
76104;HTU21D;64831;44.870;37.336;2023-03-31T15:34:42;9.34;55.74
76104;HTU21D;64831;44.870;37.336;2023-03-31T15:37:08;9.29;56.17
76104;HTU21D;64831;44.870;37.336;2023-03-31T15:39:35;9.26;55.93
76104;HTU21D;64831;44.870;37.336;2023-03-31T15:42:04;9.23;55.78
76104;HTU21D;64831;44.870;37.336;2023-03-31T15:44:35;9.21;56.23
76104;HTU21D;64831;44.870;37.336;2023-03-31T15:47:26;9.20;55.65
76104;HTU21D;64831;44.870;37.336;2023-03-31T15:49:53;9.18;55.56
76104;HTU21D;64831;44.870;37.336;2023-03-31T15:52:21;9.15;55.48
76104;HTU21D;64831;44.870;37.336;2023-03-31T15:54:47;9.10;55.43
76104;HTU21D;64831;44.870;37.336;2023-03-31T15:57:13;9.07;55.80
76104;HTU21D;64831;44.870;37.336;2023-03-31T15:59:48;9.09;55.49
76104;HTU21D;64831;44.870;37.336;2023-03-31T16:02:37;9.05;55.42
76104;HTU21D;64831;44.870;37.336;2023-03-31T16:05:00;9.03;55.63
76104;HTU21D;64831;44.870;37.336;2023-03-31T16:07:31;8.96;56.01
76104;HTU21D;64831;44.870;37.336;2023-03-31T16:10:06;8.97;55.64
76104;HTU21D;64831;44.870;37.336;2023-03-31T16:12:36;9.01;55.76
76104;HTU21D;64831;44.870;37.336;2023-03-31T16:15:07;9.02;56.14
76104;HTU21D;64831;44.870;37.336;2023-03-31T16:17:45;9.02;55.84
76104;HTU21D;64831;44.870;37.336;2023-03-31T16:20:19;9.01;55.87
76104;HTU21D;64831;44.870;37.336;2023-03-31T16:22:46;8.97;56.12
76104;HTU21D;64831;44.870;37.336;2023-03-31T16:25:15;8.94;55.95
76104;HTU21D;64831;44.870;37.336;2023-03-31T16:27:47;8.90;56.32
76104;HTU21D;64831;44.870;37.336;2023-03-31T16:30:19;8.89;55.92
76104;HTU21D;64831;44.870;37.336;2023-03-31T16:32:59;8.86;55.79
76104;HTU21D;64831;44.870;37.336;2023-03-31T16:35:32;8.81;56.55
76104;HTU21D;64831;44.870;37.336;2023-03-31T16:37:59;8.77;57.19
76104;HTU21D;64831;44.870;37.336;2023-03-31T16:40:34;8.71;57.58
76104;HTU21D;64831;44.870;37.336;2023-03-31T16:43:07;8.71;57.37
76104;HTU21D;64831;44.870;37.336;2023-03-31T16:45:33;8.68;56.92
76104;HTU21D;64831;44.870;37.336;2023-03-31T16:47:59;8.70;57.00
76104;HTU21D;64831;44.870;37.336;2023-03-31T16:50:24;8.72;56.99
76104;HTU21D;64831;44.870;37.336;2023-03-31T16:52:50;8.74;56.87
76104;HTU21D;64831;44.870;37.336;2023-03-31T16:55:16;8.75;57.17
76104;HTU21D;64831;44.870;37.336;2023-03-31T16:57:41;8.74;57.53
76104;HTU21D;64831;44.870;37.336;2023-03-31T17:00:07;8.74;58.17
76104;HTU21D;64831;44.870;37.336;2023-03-31T17:02:33;8.73;57.61
76104;HTU21D;64831;44.870;37.336;2023-03-31T17:04:59;8.71;57.77
76104;HTU21D;64831;44.870;37.336;2023-03-31T17:07:25;8.66;57.58
76104;HTU21D;64831;44.870;37.336;2023-03-31T17:09:51;8.63;57.36
76104;HTU21D;64831;44.870;37.336;2023-03-31T17:12:16;8.59;57.55
76104;HTU21D;64831;44.870;37.336;2023-03-31T17:14:42;8.57;57.50
76104;HTU21D;64831;44.870;37.336;2023-03-31T17:17:08;8.52;57.55
76104;HTU21D;64831;44.870;37.336;2023-03-31T17:19:34;8.52;57.48
76104;HTU21D;64831;44.870;37.336;2023-03-31T17:22:00;8.48;57.35
76104;HTU21D;64831;44.870;37.336;2023-03-31T17:24:27;8.47;57.32
76104;HTU21D;64831;44.870;37.336;2023-03-31T17:26:53;8.45;57.26
76104;HTU21D;64831;44.870;37.336;2023-03-31T17:29:19;8.43;57.04
76104;HTU21D;64831;44.870;37.336;2023-03-31T17:31:45;8.42;56.87
76104;HTU21D;64831;44.870;37.336;2023-03-31T17:34:10;8.38;57.24
76104;HTU21D;64831;44.870;37.336;2023-03-31T17:36:36;8.38;57.45
76104;HTU21D;64831;44.870;37.336;2023-03-31T17:39:03;8.37;57.85
76104;HTU21D;64831;44.870;37.336;2023-03-31T17:41:29;8.37;58.40
76104;HTU21D;64831;44.870;37.336;2023-03-31T17:43:56;8.39;57.90
76104;HTU21D;64831;44.870;37.336;2023-03-31T17:46:22;8.44;58.62
76104;HTU21D;64831;44.870;37.336;2023-03-31T17:48:48;8.45;59.24
76104;HTU21D;64831;44.870;37.336;2023-03-31T17:51:16;8.47;59.18
76104;HTU21D;64831;44.870;37.336;2023-03-31T17:53:42;8.48;59.66
76104;HTU21D;64831;44.870;37.336;2023-03-31T17:56:09;8.49;60.41
76104;HTU21D;64831;44.870;37.336;2023-03-31T17:58:34;8.49;60.46
76104;HTU21D;64831;44.870;37.336;2023-03-31T18:01:02;8.48;61.26
76104;HTU21D;64831;44.870;37.336;2023-03-31T18:03:28;8.47;60.83